Roanoke Regional Woodrum Field
KROA : rendu visible

Aérodrome :











RETROUVEZ-NOUS SUR...

 
LOGIN :

S'inscrire | Disclaimer

   EN    FR    IT 

 









Légende :    VFR   VFR Marginal   IFR   IFR Intensif   IFR Très Intensif
Visi : 
Plafond : 
>= 8 km
>= 3000ft
5 à 8 km
1000 à 3000 ft
1500m à 5 km
500 à 1000 ft
800 à 1500m
200 à 500 ft
< 800m
< 200 ft
Symboles :   Orages  Brouillard  Fortes neiges  Fortes précipitations  Vent > 20 kt






- Altitude de l'aérodrome : 1175 ft
- Code IATA : ROA


KROA - Roanoke Regional Woodrum Field

DERNIER METAR :
  • 231054Z 28004KT 10SM CLR M03/M09 A3029 RMK AO2 SLP262 T10281089 $

METARs EXPIRÉS :
  • 230954Z 34005KT 10SM CLR M02/M09 A3028 RMK AO2 SLP259 T10221089 $
  • 230854Z 00000KT 10SM CLR M02/M09 A3027 RMK AO2 SLP254 T10171089 55007 $

TAF KROA
Valide du 23 à 06h jusqu'au 24 à 06h UTC


230520Z 2306/2406 00000KT P6SM SKC
FM232000 20006KT P6SM SCT150



MET'MAP, la Météo Aéronautique d'un coup d'oeil ! - Copyright ORBIFLY Décembre 2007 - Disclaimer

ORBIFLY MET'MAP TEAM :

Programmation & Développement : Alexandra Zaïnal
Sur une idée originale de : Baudouin d'Aumeries
Assistance à la programmation : Marc-Olivier Méhu
Soutien technique & logistique : Manuel Goepfert

Contact : metmap@orbifly.com




SOURCES & CREDITS :

   NOAA       Earth
Advisory